Huetor-Tajar, Spain
Current Conditions -  °F | °C
As of 9:30 PM on Tuesday 21 Oct 2014 (Local Time) from LEGR Reporting Station
Clear Clear  
Wind Chill: 68°   Ceiling: Unl
Heat Index: 68°   Visibility: 6mi
Dew Point: 46°   Wind: 0mph
Humidity: 46%   Direction: NA
Pressure: 30.3"   Gusts: NA
Location:  37.2°N, 4.05°W
Report Text: LEGR 211930Z 00000KT CAVOK 20/08 Q1026
Loading
Personal Weather Stations






























Interactive Weather Map
Tropical Storm Tracking
New forecast layout! Learn more

10-Day Weather Forecast

Advertisements
Track Severe Weather on mobile